createdAt,value
2023-04-17T00:01:25.076Z,7.77
2023-04-17T00:03:53.078Z,7.81
2023-04-17T00:06:20.376Z,7.77
2023-04-17T00:08:47.045Z,7.75
2023-04-17T00:11:13.840Z,7.72
2023-04-17T00:13:40.520Z,7.70
2023-04-17T00:16:10.912Z,7.72
2023-04-17T00:18:37.670Z,7.70
2023-04-17T00:21:04.361Z,7.68
2023-04-17T00:23:31.065Z,7.67
2023-04-17T00:25:58.107Z,7.67
2023-04-17T00:28:24.778Z,7.67
2023-04-17T00:30:51.456Z,7.64
2023-04-17T00:33:18.238Z,7.64
2023-04-17T00:35:44.911Z,7.61
2023-04-17T00:38:11.547Z,7.61
2023-04-17T00:40:38.255Z,7.60
2023-04-17T00:43:06.729Z,7.59
2023-04-17T00:45:34.480Z,7.55
2023-04-17T00:48:02.670Z,7.51
2023-04-17T00:50:30.489Z,7.53
2023-04-17T00:52:58.428Z,7.53
2023-04-17T00:55:26.563Z,7.54
2023-04-17T00:57:53.374Z,7.49
2023-04-17T01:00:20.290Z,7.53
2023-04-17T01:02:47.222Z,7.48
2023-04-17T01:05:14.432Z,7.40
2023-04-17T01:07:43.142Z,7.39
2023-04-17T01:10:10.362Z,7.41
2023-04-17T01:12:37.166Z,7.40
2023-04-17T01:15:04.950Z,7.39
2023-04-17T01:17:32.373Z,7.41
2023-04-17T01:19:59.260Z,7.39
2023-04-17T01:22:26.049Z,7.35
2023-04-17T01:24:52.752Z,7.32
2023-04-17T01:27:22.641Z,7.30
2023-04-17T01:29:49.520Z,7.25
2023-04-17T01:32:17.314Z,7.26
2023-04-17T01:34:44.054Z,7.27
2023-04-17T01:37:11.076Z,7.17
2023-04-17T01:39:37.818Z,7.24
2023-04-17T01:42:04.984Z,7.31
2023-04-17T01:44:31.729Z,7.19
2023-04-17T01:46:58.488Z,7.20
2023-04-17T01:49:25.195Z,7.18
2023-04-17T01:51:53.322Z,7.20
2023-04-17T01:54:21.206Z,7.19
2023-04-17T01:56:48.069Z,7.24
2023-04-17T01:59:14.820Z,7.23
2023-04-17T02:01:41.853Z,7.21
2023-04-17T02:04:09.369Z,7.05
2023-04-17T02:06:36.585Z,6.98
2023-04-17T02:09:03.997Z,7.02
2023-04-17T02:11:30.757Z,7.01
2023-04-17T02:13:57.472Z,7.01
2023-04-17T02:16:24.307Z,6.95
2023-04-17T02:18:51.813Z,6.86
2023-04-17T02:21:18.741Z,6.92
2023-04-17T02:23:45.489Z,6.94
2023-04-17T02:26:12.463Z,6.98
2023-04-17T02:28:39.587Z,7.03
2023-04-17T02:31:08.533Z,6.98
2023-04-17T02:33:36.924Z,6.94
2023-04-17T02:36:05.008Z,6.89
2023-04-17T02:38:32.173Z,6.88
2023-04-17T02:40:59.380Z,6.84
2023-04-17T02:43:26.085Z,6.78
2023-04-17T02:45:52.765Z,6.84
2023-04-17T02:48:19.410Z,6.88
2023-04-17T02:50:46.100Z,6.82
2023-04-17T02:53:13.182Z,6.78
2023-04-17T02:55:39.902Z,6.83
2023-04-17T02:58:06.537Z,6.85
2023-04-17T03:00:33.342Z,6.83
2023-04-17T03:03:01.069Z,6.71
2023-04-17T03:05:30.533Z,6.72
2023-04-17T03:08:00.437Z,6.72
2023-04-17T03:10:27.657Z,6.77
2023-04-17T03:12:54.535Z,6.76
2023-04-17T03:15:21.300Z,6.67
2023-04-17T03:17:48.433Z,6.71
2023-04-17T03:20:16.134Z,6.70
2023-04-17T03:22:42.946Z,6.63
2023-04-17T03:25:10.367Z,6.61
2023-04-17T03:27:38.625Z,6.68
2023-04-17T03:30:06.306Z,6.56
2023-04-17T03:32:33.189Z,6.49
2023-04-17T03:35:00.196Z,6.54
2023-04-17T03:37:26.931Z,6.56
2023-04-17T03:39:55.735Z,6.60
2023-04-17T03:42:22.682Z,6.49
2023-04-17T03:44:49.414Z,6.49
2023-04-17T03:47:16.064Z,6.56
2023-04-17T03:49:42.713Z,6.61
2023-04-17T03:52:09.437Z,6.47
2023-04-17T03:54:36.801Z,6.42
2023-04-17T03:57:03.957Z,6.41
2023-04-17T03:59:31.689Z,6.44
2023-04-17T04:01:58.822Z,6.53
2023-04-17T04:04:26.011Z,6.56
2023-04-17T04:06:54.596Z,6.59
2023-04-17T04:09:21.581Z,6.50
2023-04-17T04:11:48.445Z,6.57
2023-04-17T04:14:15.322Z,6.62
2023-04-17T04:16:42.272Z,6.63
2023-04-17T04:19:09.366Z,6.58
2023-04-17T04:21:36.400Z,6.60
2023-04-17T04:24:03.290Z,6.64
2023-04-17T04:26:30.095Z,6.67
2023-04-17T04:28:56.971Z,6.70
2023-04-17T04:31:25.762Z,6.75
2023-04-17T04:33:55.303Z,6.76
2023-04-17T04:36:23.074Z,6.74
2023-04-17T04:38:50.574Z,6.77
2023-04-17T04:41:17.840Z,6.81
2023-04-17T04:43:44.507Z,6.82
2023-04-17T04:46:11.817Z,6.86
2023-04-17T04:48:40.652Z,6.89
2023-04-17T04:51:08.961Z,6.95
2023-04-17T04:53:35.974Z,7.01
2023-04-17T04:56:02.756Z,7.05
2023-04-17T04:58:32.278Z,7.13
2023-04-17T05:00:59.207Z,7.21
2023-04-17T05:03:26.424Z,7.30
2023-04-17T05:05:53.213Z,7.37
2023-04-17T05:08:20.357Z,7.55
2023-04-17T05:10:47.221Z,7.54
2023-04-17T05:13:13.949Z,7.58
2023-04-17T05:15:41.604Z,7.67
2023-04-17T05:18:08.366Z,7.64
2023-04-17T05:20:36.356Z,7.59
2023-04-17T05:23:03.276Z,7.53
2023-04-17T05:25:30.047Z,7.51
2023-04-17T05:27:56.964Z,7.46
2023-04-17T05:30:23.678Z,7.44
2023-04-17T05:32:50.665Z,7.42
2023-04-17T05:35:17.372Z,7.44
2023-04-17T05:37:44.134Z,7.50
2023-04-17T05:40:11.712Z,7.48
2023-04-17T05:42:38.437Z,7.48
2023-04-17T05:45:05.746Z,7.52
2023-04-17T05:47:32.599Z,7.76
2023-04-17T05:49:59.974Z,7.91
2023-04-17T05:52:26.828Z,7.88
2023-04-17T05:54:53.614Z,7.86
2023-04-17T05:57:20.529Z,8.04
2023-04-17T05:59:47.468Z,8.21
2023-04-17T06:02:14.697Z,8.30
2023-04-17T06:04:42.099Z,8.42
2023-04-17T06:07:09.856Z,8.34
2023-04-17T06:09:37.662Z,8.32
2023-04-17T06:12:05.055Z,8.23
2023-04-17T06:14:33.080Z,8.25
2023-04-17T06:17:01.436Z,8.44
2023-04-17T06:19:28.250Z,8.46
2023-04-17T06:21:55.418Z,8.69
2023-04-17T06:24:22.106Z,9.73
2023-04-17T06:26:49.591Z,11.73
2023-04-17T06:29:16.461Z,12.73
2023-04-17T06:31:43.240Z,14.06
2023-04-17T06:34:12.868Z,14.49
2023-04-17T06:36:40.274Z,14.94
2023-04-17T06:39:07.934Z,15.30
2023-04-17T06:41:34.647Z,15.73
2023-04-17T06:44:01.291Z,15.78
2023-04-17T06:46:28.014Z,16.00
2023-04-17T06:48:57.944Z,15.57
2023-04-17T06:51:25.525Z,14.88
2023-04-17T06:53:52.704Z,14.34
2023-04-17T06:56:20.888Z,14.33
2023-04-17T06:58:47.615Z,13.93
2023-04-17T07:01:14.656Z,12.70
2023-04-17T07:03:42.475Z,12.23
2023-04-17T07:06:09.765Z,11.47
2023-04-17T07:08:36.461Z,11.85
2023-04-17T07:11:03.115Z,11.77
2023-04-17T07:13:33.112Z,11.67
2023-04-17T07:16:01.300Z,11.34
2023-04-17T07:18:29.715Z,11.41
2023-04-17T07:20:56.748Z,11.27
2023-04-17T07:23:23.710Z,11.56
2023-04-17T07:25:51.037Z,11.64
2023-04-17T07:28:18.790Z,11.86
2023-04-17T07:30:45.687Z,11.80
2023-04-17T07:33:12.493Z,11.80
2023-04-17T07:35:39.327Z,11.95
2023-04-17T07:38:06.391Z,11.88
2023-04-17T07:40:35.945Z,12.29
2023-04-17T07:43:02.637Z,12.47
2023-04-17T07:45:29.336Z,12.23
2023-04-17T07:47:56.113Z,12.36
2023-04-17T07:50:22.890Z,12.41
2023-04-17T07:52:49.573Z,12.64
2023-04-17T07:55:16.750Z,12.70
2023-04-17T07:57:46.660Z,12.70
2023-04-17T08:00:14.649Z,12.73
2023-04-17T08:02:42.694Z,12.81
2023-04-17T08:05:10.407Z,13.00
2023-04-17T08:07:37.510Z,13.02
2023-04-17T08:10:04.926Z,12.96
2023-04-17T08:12:31.932Z,12.83
2023-04-17T08:14:58.641Z,12.94
2023-04-17T08:17:26.255Z,12.85
2023-04-17T08:19:59.593Z,12.78
2023-04-17T08:22:28.657Z,12.94
2023-04-17T08:24:58.849Z,12.98
2023-04-17T08:27:25.863Z,13.09
2023-04-17T08:29:57.929Z,12.53
2023-04-17T08:32:24.825Z,13.31
2023-04-17T08:34:51.583Z,13.52
2023-04-17T08:37:18.234Z,13.42
2023-04-17T08:39:44.982Z,13.40
2023-04-17T08:42:17.486Z,13.39
2023-04-17T08:44:45.641Z,13.55
2023-04-17T08:47:12.870Z,13.91
2023-04-17T08:49:43.328Z,13.48
2023-04-17T08:52:10.955Z,13.86
2023-04-17T08:54:38.824Z,14.02
2023-04-17T08:57:06.187Z,14.24
2023-04-17T08:59:33.426Z,14.17
2023-04-17T09:02:04.731Z,14.24
2023-04-17T09:04:43.806Z,14.37
2023-04-17T09:07:13.160Z,14.10
2023-04-17T09:09:56.876Z,13.97
2023-04-17T09:12:25.385Z,14.12
2023-04-17T09:14:52.398Z,14.24
2023-04-17T09:17:20.692Z,13.93
2023-04-17T09:20:08.903Z,14.21
2023-04-17T09:22:37.573Z,14.07
2023-04-17T09:25:05.318Z,14.32
2023-04-17T09:27:32.441Z,14.35
2023-04-17T09:30:05.953Z,14.31
2023-04-17T09:32:33.918Z,14.56
2023-04-17T09:35:03.756Z,14.68
2023-04-17T09:37:52.304Z,14.42
2023-04-17T09:40:20.963Z,14.29
2023-04-17T09:43:02.237Z,14.67
2023-04-17T09:45:35.651Z,14.50
2023-04-17T09:48:13.193Z,14.68
2023-04-17T09:50:40.221Z,14.94
2023-04-17T09:53:08.304Z,14.93
2023-04-17T09:55:37.636Z,14.94
2023-04-17T09:58:07.331Z,14.78
2023-04-17T10:00:34.460Z,14.53
2023-04-17T10:03:01.298Z,14.82
2023-04-17T10:05:29.872Z,14.93
2023-04-17T10:07:56.930Z,15.05
2023-04-17T10:10:33.277Z,15.29
2023-04-17T10:13:03.116Z,15.53
2023-04-17T10:15:30.487Z,15.31
2023-04-17T10:18:24.095Z,14.82
2023-04-17T10:20:54.306Z,14.37
2023-04-17T10:23:34.797Z,14.64
2023-04-17T10:26:26.200Z,14.47
2023-04-17T10:28:54.648Z,14.51
2023-04-17T10:31:23.610Z,14.47
2023-04-17T10:33:51.682Z,14.31
2023-04-17T10:36:39.738Z,14.69
2023-04-17T10:39:16.762Z,14.57
2023-04-17T10:42:06.252Z,14.58
2023-04-17T10:44:39.649Z,14.47
2023-04-17T10:47:07.921Z,14.44
2023-04-17T10:49:59.885Z,14.26
2023-04-17T10:52:35.741Z,14.17
2023-04-17T10:55:18.453Z,13.80
2023-04-17T10:58:13.119Z,14.15
2023-04-17T11:00:51.994Z,14.36
2023-04-17T11:03:22.371Z,14.11
2023-04-17T11:05:49.335Z,14.28
2023-04-17T11:08:16.274Z,14.40
2023-04-17T11:10:43.696Z,14.55
2023-04-17T11:13:10.584Z,14.44
2023-04-17T11:15:37.238Z,14.27
2023-04-17T11:18:04.379Z,14.26
2023-04-17T11:20:32.709Z,14.32
2023-04-17T11:23:04.057Z,14.34
2023-04-17T11:25:33.558Z,14.51
2023-04-17T11:28:06.463Z,14.77
2023-04-17T11:30:35.812Z,14.54
2023-04-17T11:33:07.962Z,14.11
2023-04-17T11:35:39.751Z,14.07
2023-04-17T11:38:11.490Z,14.47
2023-04-17T11:40:49.698Z,14.16
2023-04-17T11:43:17.194Z,14.05
2023-04-17T11:45:45.973Z,14.07
2023-04-17T11:48:14.719Z,13.91
2023-04-17T11:50:44.508Z,13.67
2023-04-17T11:53:16.479Z,13.75
2023-04-17T11:55:44.345Z,14.25
2023-04-17T11:58:13.424Z,14.32
2023-04-17T12:00:41.149Z,14.23
2023-04-17T12:03:36.536Z,14.18
2023-04-17T12:06:06.427Z,14.26
2023-04-17T12:08:44.288Z,14.39
2023-04-17T12:11:24.874Z,14.09
2023-04-17T12:13:55.692Z,13.94
2023-04-17T12:16:27.383Z,14.04
2023-04-17T12:18:54.320Z,14.36
2023-04-17T12:21:21.689Z,14.26
2023-04-17T12:23:48.529Z,14.29
2023-04-17T12:26:15.322Z,14.16
2023-04-17T12:28:42.556Z,14.09
2023-04-17T12:31:09.405Z,13.86
2023-04-17T12:33:36.340Z,13.79
2023-04-17T12:36:04.524Z,13.85
2023-04-17T12:38:31.348Z,14.35
2023-04-17T12:40:58.286Z,14.34
2023-04-17T12:43:25.040Z,14.39
2023-04-17T12:45:52.938Z,14.22
2023-04-17T12:48:19.807Z,14.04
2023-04-17T12:50:46.539Z,13.97
2023-04-17T12:53:14.867Z,14.31
2023-04-17T12:55:43.723Z,14.36
2023-04-17T12:58:12.719Z,14.22
2023-04-17T13:00:40.978Z,13.64
2023-04-17T13:03:07.966Z,13.52
2023-04-17T13:05:34.974Z,13.51
2023-04-17T13:08:01.920Z,13.51
2023-04-17T13:10:28.731Z,13.50
2023-04-17T13:12:55.600Z,13.58
2023-04-17T13:15:22.291Z,13.52
2023-04-17T13:17:49.111Z,13.62
2023-04-17T13:20:15.810Z,13.22
2023-04-17T13:22:42.489Z,13.44
2023-04-17T13:25:09.875Z,13.24
2023-04-17T13:27:37.051Z,13.40
2023-04-17T13:30:03.992Z,13.58
2023-04-17T13:32:30.749Z,13.72
2023-04-17T13:34:58.742Z,13.30
2023-04-17T13:37:25.935Z,13.77
2023-04-17T13:39:52.744Z,13.94
2023-04-17T13:42:20.442Z,13.73
2023-04-17T13:44:47.181Z,13.52
2023-04-17T13:47:13.899Z,13.58
2023-04-17T13:49:40.580Z,13.58
2023-04-17T13:52:07.667Z,13.45
2023-04-17T13:54:34.473Z,13.20
2023-04-17T13:57:01.567Z,13.26
2023-04-17T13:59:28.388Z,13.44
2023-04-17T14:01:55.300Z,13.12
2023-04-17T14:04:22.210Z,13.28
2023-04-17T14:06:50.936Z,13.54
2023-04-17T14:09:18.425Z,13.36
2023-04-17T14:11:45.212Z,13.29
2023-04-17T14:14:12.969Z,13.28
2023-04-17T14:16:43.554Z,13.63
2023-04-17T14:19:14.109Z,13.52
2023-04-17T14:21:41.800Z,13.55
2023-04-17T14:24:09.132Z,13.40
2023-04-17T14:26:37.444Z,13.45
2023-04-17T14:29:04.591Z,13.82
2023-04-17T14:31:31.885Z,13.75
2023-04-17T14:33:58.785Z,13.98
2023-04-17T14:36:26.022Z,13.84
2023-04-17T14:38:54.234Z,13.97
2023-04-17T14:41:21.056Z,14.09
2023-04-17T14:43:47.767Z,13.95
2023-04-17T14:46:14.717Z,13.88
2023-04-17T14:48:55.018Z,13.73
2023-04-17T14:51:24.061Z,13.61
2023-04-17T14:53:52.911Z,13.27
2023-04-17T14:56:21.600Z,13.27
2023-04-17T14:58:48.832Z,13.37
2023-04-17T15:01:15.803Z,13.31
2023-04-17T15:03:46.730Z,13.28
2023-04-17T15:06:16.173Z,13.32
2023-04-17T15:08:46.132Z,13.17
2023-04-17T15:11:13.020Z,13.16
2023-04-17T15:13:40.589Z,13.17
2023-04-17T15:16:09.487Z,13.02
2023-04-17T15:18:36.422Z,12.98
2023-04-17T15:21:03.077Z,12.95
2023-04-17T15:23:29.986Z,12.90
2023-04-17T15:25:58.090Z,12.70
2023-04-17T15:28:25.360Z,12.51
2023-04-17T15:30:52.094Z,12.53
2023-04-17T15:33:19.254Z,12.73
2023-04-17T15:35:46.040Z,12.86
2023-04-17T15:38:12.945Z,12.47
2023-04-17T15:40:39.663Z,12.65
2023-04-17T15:43:06.346Z,12.37
2023-04-17T15:45:33.059Z,12.40
2023-04-17T15:48:00.980Z,12.44
2023-04-17T15:50:27.952Z,12.58
2023-04-17T15:52:54.671Z,12.45
2023-04-17T15:55:21.444Z,12.41
2023-04-17T15:57:48.142Z,12.48
2023-04-17T16:00:15.651Z,12.41
2023-04-17T16:02:42.480Z,12.40
2023-04-17T16:05:16.676Z,12.38
2023-04-17T16:07:44.211Z,12.22
2023-04-17T16:10:14.652Z,12.45
2023-04-17T16:12:45.534Z,12.35
2023-04-17T16:15:14.196Z,12.31
2023-04-17T16:17:41.752Z,12.07
2023-04-17T16:20:09.346Z,12.09
2023-04-17T16:22:36.073Z,12.11
2023-04-17T16:25:03.279Z,12.14
2023-04-17T16:27:32.230Z,12.12
2023-04-17T16:29:59.431Z,12.12
2023-04-17T16:32:27.438Z,11.99
2023-04-17T16:34:54.373Z,12.11
2023-04-17T16:37:21.064Z,12.06
2023-04-17T16:39:47.855Z,11.79
2023-04-17T16:42:14.788Z,11.85
2023-04-17T16:44:41.527Z,11.85
2023-04-17T16:47:13.237Z,11.99
2023-04-17T16:49:41.253Z,11.92
2023-04-17T16:52:07.881Z,11.72
2023-04-17T16:54:34.867Z,11.65
2023-04-17T16:57:01.710Z,11.71
2023-04-17T16:59:28.476Z,11.68
2023-04-17T17:01:55.263Z,11.58
2023-04-17T17:04:22.161Z,11.68
2023-04-17T17:06:49.000Z,11.49
2023-04-17T17:09:15.852Z,11.52
2023-04-17T17:11:42.712Z,11.44
2023-04-17T17:14:09.513Z,11.43
2023-04-17T17:16:36.896Z,11.41
2023-04-17T17:19:03.982Z,11.29
2023-04-17T17:21:31.124Z,11.18
2023-04-17T17:23:57.983Z,11.14
2023-04-17T17:26:25.259Z,11.15
2023-04-17T17:28:53.326Z,11.04
2023-04-17T17:31:20.424Z,10.92
2023-04-17T17:33:54.054Z,11.06
2023-04-17T17:36:21.864Z,10.93
2023-04-17T17:38:55.585Z,10.86
2023-04-17T17:41:26.272Z,10.82
2023-04-17T17:43:56.100Z,10.59
2023-04-17T17:46:24.391Z,10.69
2023-04-17T17:48:51.412Z,10.52
2023-04-17T17:51:18.102Z,10.50
2023-04-17T17:53:44.806Z,10.40
2023-04-17T17:56:11.516Z,10.27
2023-04-17T17:58:38.199Z,10.31
2023-04-17T18:01:05.017Z,10.19
2023-04-17T18:03:32.952Z,9.99
2023-04-17T18:05:59.798Z,10.02
2023-04-17T18:08:26.523Z,10.01
2023-04-17T18:10:53.266Z,9.86
2023-04-17T18:13:20.008Z,9.86
2023-04-17T18:15:46.744Z,9.73
2023-04-17T18:18:13.458Z,9.76
2023-04-17T18:20:40.468Z,9.66
2023-04-17T18:23:07.223Z,9.66
2023-04-17T18:25:35.925Z,9.61
2023-04-17T18:28:03.755Z,9.63
2023-04-17T18:30:30.676Z,9.46
2023-04-17T18:32:57.492Z,9.27
2023-04-17T18:35:24.553Z,9.13
2023-04-17T18:37:51.222Z,9.21
2023-04-17T18:40:18.051Z,9.10
2023-04-17T18:42:44.767Z,8.93
2023-04-17T18:45:15.758Z,8.92
2023-04-17T18:47:42.681Z,8.95
2023-04-17T18:50:09.757Z,8.85
2023-04-17T18:52:42.669Z,8.77
2023-04-17T18:55:11.101Z,8.81
2023-04-17T18:57:38.101Z,8.70
2023-04-17T19:00:05.670Z,8.63
2023-04-17T19:02:32.837Z,8.68
2023-04-17T19:04:59.642Z,8.83
2023-04-17T19:07:26.524Z,8.83
2023-04-17T19:09:53.260Z,8.71
2023-04-17T19:12:20.146Z,8.79
2023-04-17T19:14:47.118Z,8.63
2023-04-17T19:17:13.917Z,8.71
2023-04-17T19:19:40.786Z,8.55
2023-04-17T19:22:07.457Z,8.44
2023-04-17T19:24:34.185Z,8.40
2023-04-17T19:27:01.948Z,8.56
2023-04-17T19:29:28.676Z,8.57
2023-04-17T19:31:55.436Z,8.46
2023-04-17T19:34:22.129Z,8.35
2023-04-17T19:36:49.043Z,8.26
2023-04-17T19:39:15.884Z,8.42
2023-04-17T19:41:43.466Z,8.25
2023-04-17T19:44:10.382Z,8.21
2023-04-17T19:46:37.076Z,8.22
2023-04-17T19:49:03.802Z,8.08
2023-04-17T19:51:31.405Z,8.09
2023-04-17T19:53:58.138Z,8.07
2023-04-17T19:56:24.823Z,7.95
2023-04-17T19:58:51.583Z,7.86
2023-04-17T20:01:18.411Z,7.76
2023-04-17T20:03:45.730Z,7.79
2023-04-17T20:06:13.977Z,7.85
2023-04-17T20:08:40.928Z,7.75
2023-04-17T20:11:07.848Z,7.72
2023-04-17T20:13:34.687Z,7.70
2023-04-17T20:16:01.470Z,7.66
2023-04-17T20:18:28.593Z,7.77
2023-04-17T20:20:55.507Z,7.64
2023-04-17T20:23:22.400Z,7.58
2023-04-17T20:25:49.250Z,7.72
2023-04-17T20:28:15.984Z,7.81
2023-04-17T20:30:42.764Z,7.77
2023-04-17T20:33:09.661Z,7.67
2023-04-17T20:35:36.412Z,7.63
2023-04-17T20:38:03.660Z,7.49
2023-04-17T20:40:30.356Z,7.44
2023-04-17T20:42:57.075Z,7.52
2023-04-17T20:45:23.749Z,7.48
2023-04-17T20:50:20.418Z,7.51
2023-04-17T20:52:47.334Z,7.55
2023-04-17T20:55:14.012Z,7.42
2023-04-17T20:57:40.921Z,7.44
2023-04-17T21:00:08.303Z,7.49
2023-04-17T21:02:35.117Z,7.53
2023-04-17T21:05:01.889Z,7.55
2023-04-17T21:07:29.022Z,7.58
2023-04-17T21:09:55.667Z,7.61
2023-04-17T21:12:23.117Z,7.62
2023-04-17T21:14:49.823Z,7.48
2023-04-17T21:17:16.513Z,7.54
2023-04-17T21:19:43.276Z,7.52
2023-04-17T21:22:11.524Z,7.46
2023-04-17T21:24:39.472Z,7.37
2023-04-17T21:27:06.186Z,7.44
2023-04-17T21:29:32.927Z,7.40
2023-04-17T21:31:59.839Z,7.31
2023-04-17T21:34:26.805Z,7.27
2023-04-17T21:36:54.314Z,7.43
2023-04-17T21:39:21.931Z,7.36
2023-04-17T21:41:48.920Z,7.41
2023-04-17T21:44:15.884Z,7.50
2023-04-17T21:46:46.261Z,7.56
2023-04-17T21:49:13.031Z,7.62
2023-04-17T21:51:39.854Z,7.59
2023-04-17T21:54:06.670Z,7.48
2023-04-17T21:56:33.341Z,7.33
2023-04-17T21:59:00.174Z,7.35
2023-04-17T22:01:27.190Z,7.24
2023-04-17T22:03:53.913Z,7.34
2023-04-17T22:06:20.753Z,7.44
2023-04-17T22:08:47.449Z,7.38
2023-04-17T22:11:14.223Z,7.45
2023-04-17T22:13:40.926Z,7.54
2023-04-17T22:16:07.532Z,7.42
2023-04-17T22:18:34.164Z,7.61
2023-04-17T22:21:00.841Z,7.58
2023-04-17T22:23:27.619Z,7.50
2023-04-17T22:25:54.328Z,7.56
2023-04-17T22:28:21.056Z,7.56
2023-04-17T22:30:50.891Z,7.67
2023-04-17T22:33:17.739Z,7.69
2023-04-17T22:35:44.443Z,7.59
2023-04-17T22:38:11.141Z,7.69
2023-04-17T22:40:38.084Z,7.58
2023-04-17T22:43:04.703Z,7.69
2023-04-17T22:45:32.771Z,7.74
2023-04-17T22:47:59.850Z,7.69
2023-04-17T22:50:26.641Z,7.74
2023-04-17T22:52:53.293Z,7.77
2023-04-17T22:55:20.196Z,7.77
2023-04-17T22:57:46.880Z,7.71
2023-04-17T23:00:14.123Z,7.60
2023-04-17T23:02:41.723Z,7.57
2023-04-17T23:05:08.905Z,7.65
2023-04-17T23:07:35.692Z,7.70
2023-04-17T23:10:02.372Z,7.69
2023-04-17T23:12:29.124Z,7.61
2023-04-17T23:14:57.938Z,7.67
2023-04-17T23:17:24.707Z,7.76
2023-04-17T23:19:51.490Z,7.67
2023-04-17T23:22:18.209Z,7.49
2023-04-17T23:24:44.928Z,7.73
2023-04-17T23:27:11.575Z,7.67
2023-04-17T23:29:38.275Z,7.73
2023-04-17T23:32:06.986Z,7.72
2023-04-17T23:34:33.623Z,7.62
2023-04-17T23:37:02.464Z,7.66
2023-04-17T23:39:29.338Z,7.63
2023-04-17T23:41:56.015Z,7.54
2023-04-17T23:44:22.664Z,7.40
2023-04-17T23:46:49.469Z,7.50
2023-04-17T23:49:16.178Z,7.46
2023-04-17T23:51:42.854Z,7.33
2023-04-17T23:54:09.607Z,7.47
2023-04-17T23:56:36.268Z,7.46
2023-04-17T23:59:03.007Z,7.22
